sensor_id;sensor_type;location;lat;lon;timestamp;P1;durP1;ratioP1;P2;durP2;ratioP2
22131;SDS011;11232;51.748;19.390;2023-03-03T00:00:17;62.67;;;23.90;;
22131;SDS011;11232;51.748;19.390;2023-03-03T00:02:43;62.27;;;22.77;;
22131;SDS011;11232;51.748;19.390;2023-03-03T00:05:09;63.67;;;24.90;;
22131;SDS011;11232;51.748;19.390;2023-03-03T00:07:39;62.50;;;24.60;;
22131;SDS011;11232;51.748;19.390;2023-03-03T00:10:08;60.60;;;23.63;;
22131;SDS011;11232;51.748;19.390;2023-03-03T00:12:34;71.73;;;25.47;;
22131;SDS011;11232;51.748;19.390;2023-03-03T00:15:00;69.13;;;25.20;;
22131;SDS011;11232;51.748;19.390;2023-03-03T00:17:27;61.43;;;24.20;;
22131;SDS011;11232;51.748;19.390;2023-03-03T00:19:54;67.83;;;24.33;;
22131;SDS011;11232;51.748;19.390;2023-03-03T00:22:30;59.90;;;21.90;;
22131;SDS011;11232;51.748;19.390;2023-03-03T00:27:41;57.70;;;23.07;;
22131;SDS011;11232;51.748;19.390;2023-03-03T00:30:16;69.03;;;24.00;;
22131;SDS011;11232;51.748;19.390;2023-03-03T00:32:44;64.77;;;21.83;;
22131;SDS011;11232;51.748;19.390;2023-03-03T00:35:24;64.67;;;24.20;;
22131;SDS011;11232;51.748;19.390;2023-03-03T00:37:55;67.27;;;23.73;;
22131;SDS011;11232;51.748;19.390;2023-03-03T00:43:00;62.63;;;22.93;;
22131;SDS011;11232;51.748;19.390;2023-03-03T00:47:52;66.27;;;23.07;;
22131;SDS011;11232;51.748;19.390;2023-03-03T00:50:25;58.43;;;22.93;;
22131;SDS011;11232;51.748;19.390;2023-03-03T00:52:52;55.37;;;21.20;;
22131;SDS011;11232;51.748;19.390;2023-03-03T00:55:20;66.30;;;22.80;;
22131;SDS011;11232;51.748;19.390;2023-03-03T00:57:45;61.63;;;22.43;;
22131;SDS011;11232;51.748;19.390;2023-03-03T01:00:12;62.63;;;22.13;;
22131;SDS011;11232;51.748;19.390;2023-03-03T01:02:38;57.43;;;22.30;;
22131;SDS011;11232;51.748;19.390;2023-03-03T01:05:04;64.87;;;23.30;;
22131;SDS011;11232;51.748;19.390;2023-03-03T01:07:30;63.73;;;22.37;;
22131;SDS011;11232;51.748;19.390;2023-03-03T01:09:56;60.90;;;21.90;;
22131;SDS011;11232;51.748;19.390;2023-03-03T01:12:22;54.43;;;21.83;;
22131;SDS011;11232;51.748;19.390;2023-03-03T01:14:48;59.77;;;21.13;;
22131;SDS011;11232;51.748;19.390;2023-03-03T01:17:16;62.07;;;23.30;;
22131;SDS011;11232;51.748;19.390;2023-03-03T01:19:43;58.13;;;20.97;;
22131;SDS011;11232;51.748;19.390;2023-03-03T01:22:09;58.90;;;22.17;;
22131;SDS011;11232;51.748;19.390;2023-03-03T01:24:35;56.83;;;21.90;;
22131;SDS011;11232;51.748;19.390;2023-03-03T01:27:01;54.80;;;21.17;;
22131;SDS011;11232;51.748;19.390;2023-03-03T01:29:27;57.33;;;21.83;;
22131;SDS011;11232;51.748;19.390;2023-03-03T01:31:53;58.93;;;21.90;;
22131;SDS011;11232;51.748;19.390;2023-03-03T01:34:19;63.13;;;22.77;;
22131;SDS011;11232;51.748;19.390;2023-03-03T01:36:45;55.77;;;21.87;;
22131;SDS011;11232;51.748;19.390;2023-03-03T01:39:11;56.40;;;21.17;;
22131;SDS011;11232;51.748;19.390;2023-03-03T01:41:37;60.23;;;21.97;;
22131;SDS011;11232;51.748;19.390;2023-03-03T01:44:04;57.77;;;21.47;;
22131;SDS011;11232;51.748;19.390;2023-03-03T01:46:36;54.00;;;20.97;;
22131;SDS011;11232;51.748;19.390;2023-03-03T01:49:13;51.57;;;20.33;;
22131;SDS011;11232;51.748;19.390;2023-03-03T01:51:42;51.80;;;20.57;;
22131;SDS011;11232;51.748;19.390;2023-03-03T01:54:11;54.33;;;21.50;;
22131;SDS011;11232;51.748;19.390;2023-03-03T01:56:39;58.13;;;20.77;;
22131;SDS011;11232;51.748;19.390;2023-03-03T01:59:08;56.13;;;21.90;;
22131;SDS011;11232;51.748;19.390;2023-03-03T02:01:36;56.17;;;20.23;;
22131;SDS011;11232;51.748;19.390;2023-03-03T02:04:02;55.07;;;21.20;;
22131;SDS011;11232;51.748;19.390;2023-03-03T02:06:30;58.17;;;21.53;;
22131;SDS011;11232;51.748;19.390;2023-03-03T02:09:19;60.57;;;22.40;;
22131;SDS011;11232;51.748;19.390;2023-03-03T02:11:47;55.30;;;21.33;;
22131;SDS011;11232;51.748;19.390;2023-03-03T02:14:15;53.77;;;20.70;;
22131;SDS011;11232;51.748;19.390;2023-03-03T02:16:41;53.47;;;21.53;;
22131;SDS011;11232;51.748;19.390;2023-03-03T02:19:09;56.80;;;21.23;;
22131;SDS011;11232;51.748;19.390;2023-03-03T02:21:38;56.20;;;21.30;;
22131;SDS011;11232;51.748;19.390;2023-03-03T02:26:45;48.37;;;20.17;;
22131;SDS011;11232;51.748;19.390;2023-03-03T02:29:11;55.37;;;19.70;;
22131;SDS011;11232;51.748;19.390;2023-03-03T02:31:37;45.90;;;18.13;;
22131;SDS011;11232;51.748;19.390;2023-03-03T02:34:03;52.03;;;19.00;;
22131;SDS011;11232;51.748;19.390;2023-03-03T02:36:30;51.63;;;18.90;;
22131;SDS011;11232;51.748;19.390;2023-03-03T02:39:02;49.60;;;18.90;;
22131;SDS011;11232;51.748;19.390;2023-03-03T02:41:43;50.33;;;19.13;;
22131;SDS011;11232;51.748;19.390;2023-03-03T02:44:12;43.43;;;18.47;;
22131;SDS011;11232;51.748;19.390;2023-03-03T02:46:40;52.83;;;19.77;;
22131;SDS011;11232;51.748;19.390;2023-03-03T02:49:08;55.13;;;20.67;;
22131;SDS011;11232;51.748;19.390;2023-03-03T02:51:34;52.73;;;20.23;;
22131;SDS011;11232;51.748;19.390;2023-03-03T02:54:01;48.63;;;19.27;;
22131;SDS011;11232;51.748;19.390;2023-03-03T02:56:27;48.67;;;18.63;;
22131;SDS011;11232;51.748;19.390;2023-03-03T02:58:53;49.47;;;19.70;;
22131;SDS011;11232;51.748;19.390;2023-03-03T03:01:19;54.10;;;20.00;;
22131;SDS011;11232;51.748;19.390;2023-03-03T03:03:45;50.40;;;19.57;;
22131;SDS011;11232;51.748;19.390;2023-03-03T03:06:11;58.47;;;20.27;;
22131;SDS011;11232;51.748;19.390;2023-03-03T03:08:37;46.37;;;19.40;;
22131;SDS011;11232;51.748;19.390;2023-03-03T03:11:03;51.17;;;18.93;;
22131;SDS011;11232;51.748;19.390;2023-03-03T03:13:32;60.13;;;22.13;;
22131;SDS011;11232;51.748;19.390;2023-03-03T03:15:58;53.40;;;20.37;;
22131;SDS011;11232;51.748;19.390;2023-03-03T03:18:25;58.67;;;20.03;;
22131;SDS011;11232;51.748;19.390;2023-03-03T03:20:51;48.70;;;18.67;;
22131;SDS011;11232;51.748;19.390;2023-03-03T03:23:17;55.30;;;21.23;;
22131;SDS011;11232;51.748;19.390;2023-03-03T03:25:46;53.37;;;20.27;;
22131;SDS011;11232;51.748;19.390;2023-03-03T03:28:15;53.40;;;20.30;;
22131;SDS011;11232;51.748;19.390;2023-03-03T03:30:41;53.63;;;22.53;;
22131;SDS011;11232;51.748;19.390;2023-03-03T03:33:09;49.03;;;19.33;;
22131;SDS011;11232;51.748;19.390;2023-03-03T03:35:36;42.07;;;17.10;;
22131;SDS011;11232;51.748;19.390;2023-03-03T03:38:02;43.87;;;17.73;;
22131;SDS011;11232;51.748;19.390;2023-03-03T03:40:28;51.37;;;20.03;;
22131;SDS011;11232;51.748;19.390;2023-03-03T03:42:54;52.30;;;19.13;;
22131;SDS011;11232;51.748;19.390;2023-03-03T03:45:20;50.03;;;19.07;;
22131;SDS011;11232;51.748;19.390;2023-03-03T03:47:46;49.93;;;19.63;;
22131;SDS011;11232;51.748;19.390;2023-03-03T03:50:12;48.23;;;20.20;;
22131;SDS011;11232;51.748;19.390;2023-03-03T03:52:38;55.17;;;19.60;;
22131;SDS011;11232;51.748;19.390;2023-03-03T03:55:05;57.67;;;20.80;;
22131;SDS011;11232;51.748;19.390;2023-03-03T03:57:31;49.87;;;18.97;;
22131;SDS011;11232;51.748;19.390;2023-03-03T03:59:57;48.73;;;20.07;;
22131;SDS011;11232;51.748;19.390;2023-03-03T04:02:23;51.40;;;19.63;;
22131;SDS011;11232;51.748;19.390;2023-03-03T04:04:49;57.40;;;19.73;;
22131;SDS011;11232;51.748;19.390;2023-03-03T04:07:15;49.83;;;19.90;;
22131;SDS011;11232;51.748;19.390;2023-03-03T04:09:41;49.87;;;18.93;;
22131;SDS011;11232;51.748;19.390;2023-03-03T04:12:07;47.77;;;19.97;;
22131;SDS011;11232;51.748;19.390;2023-03-03T04:14:33;57.87;;;19.77;;
22131;SDS011;11232;51.748;19.390;2023-03-03T04:16:59;52.40;;;20.83;;
22131;SDS011;11232;51.748;19.390;2023-03-03T04:19:25;54.17;;;20.63;;
22131;SDS011;11232;51.748;19.390;2023-03-03T04:21:51;48.00;;;19.70;;
22131;SDS011;11232;51.748;19.390;2023-03-03T04:24:17;50.00;;;20.53;;
22131;SDS011;11232;51.748;19.390;2023-03-03T04:26:43;50.77;;;19.27;;
22131;SDS011;11232;51.748;19.390;2023-03-03T04:29:09;54.93;;;19.37;;
22131;SDS011;11232;51.748;19.390;2023-03-03T04:31:35;52.43;;;21.17;;
22131;SDS011;11232;51.748;19.390;2023-03-03T04:34:01;48.30;;;20.90;;
22131;SDS011;11232;51.748;19.390;2023-03-03T04:36:27;51.33;;;20.30;;
22131;SDS011;11232;51.748;19.390;2023-03-03T04:38:53;61.97;;;21.50;;
22131;SDS011;11232;51.748;19.390;2023-03-03T04:41:19;54.27;;;21.10;;
22131;SDS011;11232;51.748;19.390;2023-03-03T04:43:45;54.37;;;20.90;;
22131;SDS011;11232;51.748;19.390;2023-03-03T04:46:11;51.37;;;21.40;;
22131;SDS011;11232;51.748;19.390;2023-03-03T04:48:37;52.27;;;20.77;;
22131;SDS011;11232;51.748;19.390;2023-03-03T04:51:03;56.00;;;22.23;;
22131;SDS011;11232;51.748;19.390;2023-03-03T04:53:29;59.87;;;21.40;;
22131;SDS011;11232;51.748;19.390;2023-03-03T04:55:55;61.43;;;21.30;;
22131;SDS011;11232;51.748;19.390;2023-03-03T04:58:21;57.23;;;21.93;;
22131;SDS011;11232;51.748;19.390;2023-03-03T05:00:52;67.83;;;26.20;;
22131;SDS011;11232;51.748;19.390;2023-03-03T05:03:18;56.03;;;21.33;;
22131;SDS011;11232;51.748;19.390;2023-03-03T05:05:45;62.27;;;22.03;;
22131;SDS011;11232;51.748;19.390;2023-03-03T05:08:11;58.30;;;22.07;;
22131;SDS011;11232;51.748;19.390;2023-03-03T05:10:37;56.27;;;21.33;;
22131;SDS011;11232;51.748;19.390;2023-03-03T05:13:04;60.57;;;21.27;;
22131;SDS011;11232;51.748;19.390;2023-03-03T05:15:30;60.57;;;21.97;;
22131;SDS011;11232;51.748;19.390;2023-03-03T05:17:56;51.00;;;19.53;;
22131;SDS011;11232;51.748;19.390;2023-03-03T05:20:22;61.53;;;22.80;;
22131;SDS011;11232;51.748;19.390;2023-03-03T05:22:49;61.43;;;21.83;;
22131;SDS011;11232;51.748;19.390;2023-03-03T05:25:15;58.10;;;21.50;;
22131;SDS011;11232;51.748;19.390;2023-03-03T05:27:41;57.20;;;21.77;;
22131;SDS011;11232;51.748;19.390;2023-03-03T05:30:07;56.90;;;20.70;;
22131;SDS011;11232;51.748;19.390;2023-03-03T05:32:34;58.43;;;21.53;;
22131;SDS011;11232;51.748;19.390;2023-03-03T05:35:00;52.90;;;21.47;;
22131;SDS011;11232;51.748;19.390;2023-03-03T05:37:26;60.87;;;21.97;;
22131;SDS011;11232;51.748;19.390;2023-03-03T05:39:52;68.03;;;23.20;;
22131;SDS011;11232;51.748;19.390;2023-03-03T05:42:18;60.67;;;22.43;;
22131;SDS011;11232;51.748;19.390;2023-03-03T05:44:44;55.73;;;21.40;;
22131;SDS011;11232;51.748;19.390;2023-03-03T05:47:10;61.73;;;22.13;;
22131;SDS011;11232;51.748;19.390;2023-03-03T05:49:36;54.57;;;20.80;;
22131;SDS011;11232;51.748;19.390;2023-03-03T05:52:02;60.03;;;21.80;;
22131;SDS011;11232;51.748;19.390;2023-03-03T05:54:28;65.10;;;23.77;;
22131;SDS011;11232;51.748;19.390;2023-03-03T05:56:54;59.07;;;22.23;;
22131;SDS011;11232;51.748;19.390;2023-03-03T05:59:21;58.77;;;21.67;;
22131;SDS011;11232;51.748;19.390;2023-03-03T06:01:47;63.37;;;21.67;;
22131;SDS011;11232;51.748;19.390;2023-03-03T06:04:13;60.37;;;22.03;;
22131;SDS011;11232;51.748;19.390;2023-03-03T06:06:39;53.97;;;21.20;;
22131;SDS011;11232;51.748;19.390;2023-03-03T06:09:05;55.70;;;21.17;;
22131;SDS011;11232;51.748;19.390;2023-03-03T06:11:31;65.97;;;23.33;;
22131;SDS011;11232;51.748;19.390;2023-03-03T06:13:57;64.23;;;21.97;;
22131;SDS011;11232;51.748;19.390;2023-03-03T06:16:23;59.00;;;22.37;;
22131;SDS011;11232;51.748;19.390;2023-03-03T06:18:49;58.50;;;22.80;;
22131;SDS011;11232;51.748;19.390;2023-03-03T06:21:15;65.97;;;23.50;;
22131;SDS011;11232;51.748;19.390;2023-03-03T06:23:41;62.53;;;22.93;;
22131;SDS011;11232;51.748;19.390;2023-03-03T06:26:08;62.27;;;21.90;;
22131;SDS011;11232;51.748;19.390;2023-03-03T06:28:34;68.90;;;23.97;;
22131;SDS011;11232;51.748;19.390;2023-03-03T06:31:00;65.33;;;22.60;;
22131;SDS011;11232;51.748;19.390;2023-03-03T06:33:26;69.70;;;24.33;;
22131;SDS011;11232;51.748;19.390;2023-03-03T06:35:52;64.40;;;23.67;;
22131;SDS011;11232;51.748;19.390;2023-03-03T06:38:18;68.70;;;25.13;;
22131;SDS011;11232;51.748;19.390;2023-03-03T06:40:45;61.33;;;23.63;;
22131;SDS011;11232;51.748;19.390;2023-03-03T06:43:11;81.17;;;24.23;;
22131;SDS011;11232;51.748;19.390;2023-03-03T06:45:37;83.33;;;23.73;;
22131;SDS011;11232;51.748;19.390;2023-03-03T06:48:03;74.50;;;24.37;;
22131;SDS011;11232;51.748;19.390;2023-03-03T06:50:30;76.93;;;24.53;;
22131;SDS011;11232;51.748;19.390;2023-03-03T06:53:01;67.07;;;23.27;;
22131;SDS011;11232;51.748;19.390;2023-03-03T06:55:28;70.90;;;21.97;;
22131;SDS011;11232;51.748;19.390;2023-03-03T06:57:54;68.67;;;23.57;;
22131;SDS011;11232;51.748;19.390;2023-03-03T07:00:24;76.37;;;24.70;;
22131;SDS011;11232;51.748;19.390;2023-03-03T07:02:53;89.37;;;31.57;;
22131;SDS011;11232;51.748;19.390;2023-03-03T07:05:22;73.00;;;22.17;;
22131;SDS011;11232;51.748;19.390;2023-03-03T07:07:48;76.50;;;23.13;;
22131;SDS011;11232;51.748;19.390;2023-03-03T07:12:46;64.17;;;20.77;;
22131;SDS011;11232;51.748;19.390;2023-03-03T07:17:45;73.77;;;23.73;;
22131;SDS011;11232;51.748;19.390;2023-03-03T07:20:55;75.47;;;22.17;;
22131;SDS011;11232;51.748;19.390;2023-03-03T07:23:09;71.67;;;21.90;;
22131;SDS011;11232;51.748;19.390;2023-03-03T07:25:38;71.70;;;22.10;;
22131;SDS011;11232;51.748;19.390;2023-03-03T07:28:12;74.70;;;24.47;;
22131;SDS011;11232;51.748;19.390;2023-03-03T07:30:41;75.67;;;23.03;;
22131;SDS011;11232;51.748;19.390;2023-03-03T07:33:07;65.53;;;21.60;;
22131;SDS011;11232;51.748;19.390;2023-03-03T07:35:43;69.23;;;22.47;;
22131;SDS011;11232;51.748;19.390;2023-03-03T07:38:22;69.17;;;22.67;;
22131;SDS011;11232;51.748;19.390;2023-03-03T07:40:52;68.47;;;20.43;;
22131;SDS011;11232;51.748;19.390;2023-03-03T07:43:38;65.67;;;20.97;;
22131;SDS011;11232;51.748;19.390;2023-03-03T07:48:47;60.77;;;20.17;;
22131;SDS011;11232;51.748;19.390;2023-03-03T07:53:49;74.73;;;22.03;;
22131;SDS011;11232;51.748;19.390;2023-03-03T07:56:29;71.30;;;22.77;;
22131;SDS011;11232;51.748;19.390;2023-03-03T07:58:59;79.30;;;23.97;;
22131;SDS011;11232;51.748;19.390;2023-03-03T08:03:53;62.17;;;19.67;;
22131;SDS011;11232;51.748;19.390;2023-03-03T08:06:29;61.30;;;21.77;;
22131;SDS011;11232;51.748;19.390;2023-03-03T08:09:00;67.37;;;21.57;;
22131;SDS011;11232;51.748;19.390;2023-03-03T08:11:26;63.90;;;20.30;;
22131;SDS011;11232;51.748;19.390;2023-03-03T08:13:52;66.70;;;22.37;;
22131;SDS011;11232;51.748;19.390;2023-03-03T08:18:48;70.73;;;21.43;;
22131;SDS011;11232;51.748;19.390;2023-03-03T08:23:40;68.27;;;20.00;;
22131;SDS011;11232;51.748;19.390;2023-03-03T08:26:06;69.23;;;22.43;;
22131;SDS011;11232;51.748;19.390;2023-03-03T08:28:32;59.87;;;20.07;;
22131;SDS011;11232;51.748;19.390;2023-03-03T08:30:58;67.80;;;20.23;;
22131;SDS011;11232;51.748;19.390;2023-03-03T08:33:24;67.73;;;21.17;;
22131;SDS011;11232;51.748;19.390;2023-03-03T08:35:51;59.87;;;19.57;;
22131;SDS011;11232;51.748;19.390;2023-03-03T08:38:18;66.63;;;21.00;;
22131;SDS011;11232;51.748;19.390;2023-03-03T08:40:45;73.47;;;22.57;;
22131;SDS011;11232;51.748;19.390;2023-03-03T08:43:11;74.60;;;21.70;;
22131;SDS011;11232;51.748;19.390;2023-03-03T08:45:45;61.97;;;20.93;;
22131;SDS011;11232;51.748;19.390;2023-03-03T08:48:11;67.23;;;20.97;;
22131;SDS011;11232;51.748;19.390;2023-03-03T08:50:37;66.17;;;21.03;;
22131;SDS011;11232;51.748;19.390;2023-03-03T08:53:05;71.10;;;22.03;;
22131;SDS011;11232;51.748;19.390;2023-03-03T08:55:31;67.10;;;20.83;;
22131;SDS011;11232;51.748;19.390;2023-03-03T08:57:57;59.23;;;20.97;;
22131;SDS011;11232;51.748;19.390;2023-03-03T09:00:23;66.10;;;22.53;;
22131;SDS011;11232;51.748;19.390;2023-03-03T09:02:50;64.57;;;19.70;;
22131;SDS011;11232;51.748;19.390;2023-03-03T09:05:17;54.87;;;18.33;;
22131;SDS011;11232;51.748;19.390;2023-03-03T09:07:44;60.37;;;19.73;;
22131;SDS011;11232;51.748;19.390;2023-03-03T09:10:12;55.93;;;18.57;;
22131;SDS011;11232;51.748;19.390;2023-03-03T09:12:39;61.03;;;17.30;;
22131;SDS011;11232;51.748;19.390;2023-03-03T09:15:38;56.60;;;18.37;;
22131;SDS011;11232;51.748;19.390;2023-03-03T09:17:58;60.23;;;20.07;;
22131;SDS011;11232;51.748;19.390;2023-03-03T09:20:35;58.43;;;19.30;;
22131;SDS011;11232;51.748;19.390;2023-03-03T09:25:46;62.97;;;20.20;;
22131;SDS011;11232;51.748;19.390;2023-03-03T09:30:46;59.63;;;20.40;;
22131;SDS011;11232;51.748;19.390;2023-03-03T09:33:30;70.90;;;24.33;;
22131;SDS011;11232;51.748;19.390;2023-03-03T09:38:30;62.20;;;20.23;;
22131;SDS011;11232;51.748;19.390;2023-03-03T09:48:56;63.20;;;22.20;;
22131;SDS011;11232;51.748;19.390;2023-03-03T09:51:30;58.40;;;21.43;;
22131;SDS011;11232;51.748;19.390;2023-03-03T09:54:17;53.03;;;19.57;;
22131;SDS011;11232;51.748;19.390;2023-03-03T10:02:15;53.93;;;19.20;;
22131;SDS011;11232;51.748;19.390;2023-03-03T10:04:50;59.53;;;20.53;;
22131;SDS011;11232;51.748;19.390;2023-03-03T10:15:17;75.80;;;24.60;;
22131;SDS011;11232;51.748;19.390;2023-03-03T10:23:29;74.80;;;23.87;;
22131;SDS011;11232;51.748;19.390;2023-03-03T10:28:24;53.80;;;18.17;;
22131;SDS011;11232;51.748;19.390;2023-03-03T10:33:29;60.00;;;20.13;;
22131;SDS011;11232;51.748;19.390;2023-03-03T10:35:59;62.40;;;20.73;;
22131;SDS011;11232;51.748;19.390;2023-03-03T10:40:57;55.00;;;20.37;;
22131;SDS011;11232;51.748;19.390;2023-03-03T10:43:37;57.37;;;20.03;;
22131;SDS011;11232;51.748;19.390;2023-03-03T10:46:12;60.23;;;21.47;;
22131;SDS011;11232;51.748;19.390;2023-03-03T11:01:55;62.43;;;20.37;;
22131;SDS011;11232;51.748;19.390;2023-03-03T11:04:39;59.33;;;20.57;;
22131;SDS011;11232;51.748;19.390;2023-03-03T11:07:20;65.30;;;21.67;;
22131;SDS011;11232;51.748;19.390;2023-03-03T11:12:44;71.83;;;22.67;;
22131;SDS011;11232;51.748;19.390;2023-03-03T11:15:25;82.93;;;25.23;;
22131;SDS011;11232;51.748;19.390;2023-03-03T11:18:02;73.57;;;23.67;;
22131;SDS011;11232;51.748;19.390;2023-03-03T11:26:01;68.00;;;22.03;;
22131;SDS011;11232;51.748;19.390;2023-03-03T11:33:57;66.30;;;19.73;;
22131;SDS011;11232;51.748;19.390;2023-03-03T11:36:20;59.90;;;19.37;;
22131;SDS011;11232;51.748;19.390;2023-03-03T11:41:34;51.53;;;19.43;;
22131;SDS011;11232;51.748;19.390;2023-03-03T11:44:09;61.10;;;19.57;;
22131;SDS011;11232;51.748;19.390;2023-03-03T11:46:45;63.00;;;19.20;;
22131;SDS011;11232;51.748;19.390;2023-03-03T11:51:48;55.57;;;19.87;;
22131;SDS011;11232;51.748;19.390;2023-03-03T11:54:20;58.23;;;19.90;;
22131;SDS011;11232;51.748;19.390;2023-03-03T11:56:48;73.17;;;23.50;;
22131;SDS011;11232;51.748;19.390;2023-03-03T11:59:32;70.90;;;23.00;;
22131;SDS011;11232;51.748;19.390;2023-03-03T12:12:15;53.83;;;19.37;;
22131;SDS011;11232;51.748;19.390;2023-03-03T12:22:30;62.80;;;21.87;;
22131;SDS011;11232;51.748;19.390;2023-03-03T12:35:42;56.53;;;19.00;;
22131;SDS011;11232;51.748;19.390;2023-03-03T12:38:20;55.50;;;18.17;;
22131;SDS011;11232;51.748;19.390;2023-03-03T12:40:56;59.90;;;20.77;;
22131;SDS011;11232;51.748;19.390;2023-03-03T12:56:10;49.17;;;17.53;;
22131;SDS011;11232;51.748;19.390;2023-03-03T12:58:50;51.50;;;18.97;;
22131;SDS011;11232;51.748;19.390;2023-03-03T13:04:07;56.47;;;19.37;;
22131;SDS011;11232;51.748;19.390;2023-03-03T13:17:08;56.67;;;19.77;;
22131;SDS011;11232;51.748;19.390;2023-03-03T13:19:42;53.30;;;19.00;;
22131;SDS011;11232;51.748;19.390;2023-03-03T13:22:17;52.63;;;19.20;;
22131;SDS011;11232;51.748;19.390;2023-03-03T13:25:02;61.47;;;21.53;;
22131;SDS011;11232;51.748;19.390;2023-03-03T13:27:31;49.37;;;19.50;;
22131;SDS011;11232;51.748;19.390;2023-03-03T13:32:31;54.80;;;18.23;;
22131;SDS011;11232;51.748;19.390;2023-03-03T13:35:06;50.87;;;18.03;;
22131;SDS011;11232;51.748;19.390;2023-03-03T13:37:38;40.53;;;16.00;;
22131;SDS011;11232;51.748;19.390;2023-03-03T13:40:16;49.03;;;14.47;;
22131;SDS011;11232;51.748;19.390;2023-03-03T13:51:16;47.40;;;17.07;;
22131;SDS011;11232;51.748;19.390;2023-03-03T14:06:04;49.40;;;18.20;;
22131;SDS011;11232;51.748;19.390;2023-03-03T14:19:04;47.03;;;18.00;;
22131;SDS011;11232;51.748;19.390;2023-03-03T14:21:37;52.30;;;18.50;;
22131;SDS011;11232;51.748;19.390;2023-03-03T14:26:44;48.10;;;17.83;;
22131;SDS011;11232;51.748;19.390;2023-03-03T14:29:15;51.83;;;18.00;;
22131;SDS011;11232;51.748;19.390;2023-03-03T14:31:43;56.57;;;18.73;;
22131;SDS011;11232;51.748;19.390;2023-03-03T14:36:48;44.63;;;17.27;;
22131;SDS011;11232;51.748;19.390;2023-03-03T14:41:56;54.33;;;18.27;;
22131;SDS011;11232;51.748;19.390;2023-03-03T14:49:27;51.57;;;18.83;;
22131;SDS011;11232;51.748;19.390;2023-03-03T14:52:00;51.17;;;18.43;;
22131;SDS011;11232;51.748;19.390;2023-03-03T14:54:28;48.47;;;18.87;;
22131;SDS011;11232;51.748;19.390;2023-03-03T14:57:02;53.33;;;18.80;;
22131;SDS011;11232;51.748;19.390;2023-03-03T14:59:31;48.37;;;17.80;;
22131;SDS011;11232;51.748;19.390;2023-03-03T15:04:26;43.10;;;17.17;;
22131;SDS011;11232;51.748;19.390;2023-03-03T15:06:55;52.67;;;18.23;;
22131;SDS011;11232;51.748;19.390;2023-03-03T15:09:24;56.43;;;18.87;;
22131;SDS011;11232;51.748;19.390;2023-03-03T15:11:52;55.67;;;18.17;;
22131;SDS011;11232;51.748;19.390;2023-03-03T15:14:19;49.50;;;19.37;;
22131;SDS011;11232;51.748;19.390;2023-03-03T15:16:45;49.10;;;18.70;;
22131;SDS011;11232;51.748;19.390;2023-03-03T15:21:39;51.20;;;18.00;;
22131;SDS011;11232;51.748;19.390;2023-03-03T15:24:19;49.47;;;16.63;;
22131;SDS011;11232;51.748;19.390;2023-03-03T15:26:50;42.00;;;16.43;;
22131;SDS011;11232;51.748;19.390;2023-03-03T15:32:16;47.17;;;17.27;;
22131;SDS011;11232;51.748;19.390;2023-03-03T15:34:52;46.47;;;17.37;;
22131;SDS011;11232;51.748;19.390;2023-03-03T15:45:10;41.97;;;15.30;;
22131;SDS011;11232;51.748;19.390;2023-03-03T15:53:03;38.73;;;15.17;;
22131;SDS011;11232;51.748;19.390;2023-03-03T16:02:55;43.83;;;17.07;;
22131;SDS011;11232;51.748;19.390;2023-03-03T16:05:41;46.13;;;16.33;;
22131;SDS011;11232;51.748;19.390;2023-03-03T16:08:17;38.57;;;14.47;;
22131;SDS011;11232;51.748;19.390;2023-03-03T16:10:54;41.20;;;16.60;;
22131;SDS011;11232;51.748;19.390;2023-03-03T16:18:26;46.80;;;17.37;;
22131;SDS011;11232;51.748;19.390;2023-03-03T16:21:10;49.37;;;18.97;;
22131;SDS011;11232;51.748;19.390;2023-03-03T16:23:46;49.63;;;18.20;;
22131;SDS011;11232;51.748;19.390;2023-03-03T16:29:03;56.33;;;19.10;;
22131;SDS011;11232;51.748;19.390;2023-03-03T16:31:35;56.03;;;19.30;;
22131;SDS011;11232;51.748;19.390;2023-03-03T16:34:09;50.43;;;19.37;;
22131;SDS011;11232;51.748;19.390;2023-03-03T16:36:51;54.10;;;19.67;;
22131;SDS011;11232;51.748;19.390;2023-03-03T16:39:19;54.73;;;19.73;;
22131;SDS011;11232;51.748;19.390;2023-03-03T16:46:40;46.30;;;17.00;;
22131;SDS011;11232;51.748;19.390;2023-03-03T16:51:50;46.10;;;17.43;;
22131;SDS011;11232;51.748;19.390;2023-03-03T17:04:42;48.53;;;18.00;;
22131;SDS011;11232;51.748;19.390;2023-03-03T17:07:14;50.57;;;19.30;;
22131;SDS011;11232;51.748;19.390;2023-03-03T17:09:53;57.33;;;22.00;;
22131;SDS011;11232;51.748;19.390;2023-03-03T17:19:50;53.67;;;20.37;;
22131;SDS011;11232;51.748;19.390;2023-03-03T17:23:25;60.87;;;22.20;;
22131;SDS011;11232;51.748;19.390;2023-03-03T17:25:20;58.87;;;23.00;;
22131;SDS011;11232;51.748;19.390;2023-03-03T17:35:34;53.87;;;21.53;;
22131;SDS011;11232;51.748;19.390;2023-03-03T17:43:12;54.73;;;19.37;;
22131;SDS011;11232;51.748;19.390;2023-03-03T17:45:40;47.60;;;18.80;;
22131;SDS011;11232;51.748;19.390;2023-03-03T17:58:29;55.93;;;21.77;;
22131;SDS011;11232;51.748;19.390;2023-03-03T18:09:04;53.27;;;20.97;;
22131;SDS011;11232;51.748;19.390;2023-03-03T18:19:11;58.20;;;20.73;;
22131;SDS011;11232;51.748;19.390;2023-03-03T18:24:29;48.93;;;19.13;;
22131;SDS011;11232;51.748;19.390;2023-03-03T18:30:02;52.30;;;19.23;;
22131;SDS011;11232;51.748;19.390;2023-03-03T18:32:39;54.93;;;20.50;;
22131;SDS011;11232;51.748;19.390;2023-03-03T18:37:50;51.07;;;20.37;;
22131;SDS011;11232;51.748;19.390;2023-03-03T18:42:43;57.40;;;22.30;;
22131;SDS011;11232;51.748;19.390;2023-03-03T18:53:21;60.93;;;23.07;;
22131;SDS011;11232;51.748;19.390;2023-03-03T18:55:49;60.13;;;22.60;;
22131;SDS011;11232;51.748;19.390;2023-03-03T19:06:04;61.50;;;24.23;;
22131;SDS011;11232;51.748;19.390;2023-03-03T19:08:51;67.23;;;24.30;;
22131;SDS011;11232;51.748;19.390;2023-03-03T19:14:17;64.77;;;24.17;;
22131;SDS011;11232;51.748;19.390;2023-03-03T19:16:44;67.50;;;23.93;;
22131;SDS011;11232;51.748;19.390;2023-03-03T19:19:14;67.83;;;24.87;;
22131;SDS011;11232;51.748;19.390;2023-03-03T19:21:49;69.87;;;26.27;;
22131;SDS011;11232;51.748;19.390;2023-03-03T19:36:59;65.97;;;23.60;;
22131;SDS011;11232;51.748;19.390;2023-03-03T19:53:33;61.57;;;23.37;;
22131;SDS011;11232;51.748;19.390;2023-03-03T20:00:40;55.43;;;21.33;;
22131;SDS011;11232;51.748;19.390;2023-03-03T20:08:09;59.40;;;22.27;;
22131;SDS011;11232;51.748;19.390;2023-03-03T20:13:25;54.37;;;21.10;;
22131;SDS011;11232;51.748;19.390;2023-03-03T20:26:25;52.07;;;20.50;;
22131;SDS011;11232;51.748;19.390;2023-03-03T20:37:17;55.03;;;22.33;;
22131;SDS011;11232;51.748;19.390;2023-03-03T20:47:18;56.47;;;21.80;;
22131;SDS011;11232;51.748;19.390;2023-03-03T20:52:47;59.57;;;22.37;;
22131;SDS011;11232;51.748;19.390;2023-03-03T20:58:01;56.23;;;23.63;;
22131;SDS011;11232;51.748;19.390;2023-03-03T21:05:21;63.93;;;23.67;;
22131;SDS011;11232;51.748;19.390;2023-03-03T21:10:17;66.23;;;23.63;;
22131;SDS011;11232;51.748;19.390;2023-03-03T21:12:48;62.67;;;21.90;;